sensor_id;sensor_type;location;lat;lon;timestamp;P1;durP1;ratioP1;P2;durP2;ratioP2
44893;SDS011;30625;52.206;21.030;2023-04-09T00:01:55;19.95;;;10.82;;
44893;SDS011;30625;52.206;21.030;2023-04-09T00:04:21;18.58;;;9.75;;
44893;SDS011;30625;52.206;21.030;2023-04-09T00:09:13;19.60;;;10.15;;
44893;SDS011;30625;52.206;21.030;2023-04-09T00:11:39;19.50;;;10.95;;
44893;SDS011;30625;52.206;21.030;2023-04-09T00:14:05;17.48;;;10.77;;
44893;SDS011;30625;52.206;21.030;2023-04-09T00:16:31;18.90;;;10.77;;
44893;SDS011;30625;52.206;21.030;2023-04-09T00:18:57;18.73;;;10.82;;
44893;SDS011;30625;52.206;21.030;2023-04-09T00:21:22;19.42;;;11.32;;
44893;SDS011;30625;52.206;21.030;2023-04-09T00:23:48;20.25;;;10.93;;
44893;SDS011;30625;52.206;21.030;2023-04-09T00:26:14;17.80;;;10.15;;
44893;SDS011;30625;52.206;21.030;2023-04-09T00:28:40;18.88;;;10.80;;
44893;SDS011;30625;52.206;21.030;2023-04-09T00:31:05;20.60;;;11.85;;
44893;SDS011;30625;52.206;21.030;2023-04-09T00:33:31;22.88;;;12.23;;
44893;SDS011;30625;52.206;21.030;2023-04-09T00:35:56;21.52;;;12.32;;
44893;SDS011;30625;52.206;21.030;2023-04-09T00:38:22;20.65;;;11.07;;
44893;SDS011;30625;52.206;21.030;2023-04-09T00:40:48;22.48;;;12.88;;
44893;SDS011;30625;52.206;21.030;2023-04-09T00:43:14;21.30;;;12.30;;
44893;SDS011;30625;52.206;21.030;2023-04-09T00:45:42;18.52;;;11.63;;
44893;SDS011;30625;52.206;21.030;2023-04-09T00:48:08;20.73;;;12.52;;
44893;SDS011;30625;52.206;21.030;2023-04-09T00:50:34;20.30;;;12.15;;
44893;SDS011;30625;52.206;21.030;2023-04-09T00:55:26;18.58;;;11.27;;
44893;SDS011;30625;52.206;21.030;2023-04-09T00:57:53;20.42;;;10.43;;
44893;SDS011;30625;52.206;21.030;2023-04-09T01:00:18;20.40;;;11.75;;
44893;SDS011;30625;52.206;21.030;2023-04-09T01:02:44;20.23;;;12.00;;
44893;SDS011;30625;52.206;21.030;2023-04-09T01:05:10;19.48;;;12.57;;
44893;SDS011;30625;52.206;21.030;2023-04-09T01:10:31;20.15;;;12.27;;
44893;SDS011;30625;52.206;21.030;2023-04-09T01:13:29;19.13;;;11.13;;
44893;SDS011;30625;52.206;21.030;2023-04-09T01:16:06;20.00;;;11.25;;
44893;SDS011;30625;52.206;21.030;2023-04-09T01:18:35;21.23;;;11.15;;
44893;SDS011;30625;52.206;21.030;2023-04-09T01:21:15;15.15;;;9.32;;
44893;SDS011;30625;52.206;21.030;2023-04-09T01:28:58;16.95;;;10.30;;
44893;SDS011;30625;52.206;21.030;2023-04-09T01:31:31;19.23;;;10.32;;
44893;SDS011;30625;52.206;21.030;2023-04-09T01:34:01;16.27;;;9.73;;
44893;SDS011;30625;52.206;21.030;2023-04-09T01:36:29;19.38;;;10.68;;
44893;SDS011;30625;52.206;21.030;2023-04-09T01:38:56;20.60;;;11.38;;
44893;SDS011;30625;52.206;21.030;2023-04-09T01:41:24;18.42;;;10.88;;
44893;SDS011;30625;52.206;21.030;2023-04-09T01:43:51;19.95;;;10.80;;
44893;SDS011;30625;52.206;21.030;2023-04-09T01:46:18;19.83;;;11.93;;
44893;SDS011;30625;52.206;21.030;2023-04-09T01:48:45;21.08;;;11.80;;
44893;SDS011;30625;52.206;21.030;2023-04-09T01:51:12;19.13;;;11.63;;
44893;SDS011;30625;52.206;21.030;2023-04-09T01:56:05;19.08;;;10.35;;
44893;SDS011;30625;52.206;21.030;2023-04-09T01:58:31;20.77;;;10.75;;
44893;SDS011;30625;52.206;21.030;2023-04-09T02:04:17;20.47;;;11.73;;
44893;SDS011;30625;52.206;21.030;2023-04-09T02:06:49;22.88;;;11.90;;
44893;SDS011;30625;52.206;21.030;2023-04-09T02:09:45;21.23;;;10.85;;
44893;SDS011;30625;52.206;21.030;2023-04-09T02:12:13;19.23;;;10.82;;
44893;SDS011;30625;52.206;21.030;2023-04-09T02:14:42;20.35;;;11.10;;
44893;SDS011;30625;52.206;21.030;2023-04-09T02:17:10;18.88;;;11.10;;
44893;SDS011;30625;52.206;21.030;2023-04-09T02:19:45;17.90;;;11.48;;
44893;SDS011;30625;52.206;21.030;2023-04-09T02:22:12;23.40;;;13.25;;
44893;SDS011;30625;52.206;21.030;2023-04-09T02:24:39;24.45;;;12.30;;
44893;SDS011;30625;52.206;21.030;2023-04-09T02:27:04;23.88;;;12.73;;
44893;SDS011;30625;52.206;21.030;2023-04-09T02:29:30;21.90;;;12.10;;
44893;SDS011;30625;52.206;21.030;2023-04-09T02:31:56;21.45;;;12.13;;
44893;SDS011;30625;52.206;21.030;2023-04-09T02:34:22;21.08;;;12.02;;
44893;SDS011;30625;52.206;21.030;2023-04-09T02:36:48;22.10;;;12.60;;
44893;SDS011;30625;52.206;21.030;2023-04-09T02:39:14;19.92;;;11.88;;
44893;SDS011;30625;52.206;21.030;2023-04-09T02:41:40;20.08;;;11.55;;
44893;SDS011;30625;52.206;21.030;2023-04-09T02:44:05;19.75;;;11.27;;
44893;SDS011;30625;52.206;21.030;2023-04-09T02:46:31;20.27;;;11.82;;
44893;SDS011;30625;52.206;21.030;2023-04-09T02:48:57;21.65;;;11.88;;
44893;SDS011;30625;52.206;21.030;2023-04-09T02:51:23;19.25;;;11.65;;
44893;SDS011;30625;52.206;21.030;2023-04-09T02:53:48;19.70;;;11.02;;
44893;SDS011;30625;52.206;21.030;2023-04-09T02:56:14;23.17;;;12.57;;
44893;SDS011;30625;52.206;21.030;2023-04-09T02:58:39;24.08;;;13.00;;
44893;SDS011;30625;52.206;21.030;2023-04-09T03:01:05;24.75;;;13.27;;
44893;SDS011;30625;52.206;21.030;2023-04-09T03:03:31;24.98;;;13.27;;
44893;SDS011;30625;52.206;21.030;2023-04-09T03:05:57;22.35;;;12.55;;
44893;SDS011;30625;52.206;21.030;2023-04-09T03:08:22;20.52;;;12.45;;
44893;SDS011;30625;52.206;21.030;2023-04-09T03:10:48;24.10;;;12.43;;
44893;SDS011;30625;52.206;21.030;2023-04-09T03:13:14;22.30;;;12.25;;
44893;SDS011;30625;52.206;21.030;2023-04-09T03:15:40;26.48;;;13.82;;
44893;SDS011;30625;52.206;21.030;2023-04-09T03:18:05;21.45;;;12.18;;
44893;SDS011;30625;52.206;21.030;2023-04-09T03:20:31;22.05;;;12.25;;
44893;SDS011;30625;52.206;21.030;2023-04-09T03:22:57;24.40;;;14.02;;
44893;SDS011;30625;52.206;21.030;2023-04-09T03:25:22;21.60;;;12.75;;
44893;SDS011;30625;52.206;21.030;2023-04-09T03:27:48;22.20;;;12.75;;
44893;SDS011;30625;52.206;21.030;2023-04-09T03:30:13;23.90;;;13.10;;
44893;SDS011;30625;52.206;21.030;2023-04-09T03:32:39;25.15;;;13.40;;
44893;SDS011;30625;52.206;21.030;2023-04-09T03:35:05;21.67;;;12.68;;
44893;SDS011;30625;52.206;21.030;2023-04-09T03:37:31;22.25;;;12.48;;
44893;SDS011;30625;52.206;21.030;2023-04-09T03:39:56;22.08;;;13.02;;
44893;SDS011;30625;52.206;21.030;2023-04-09T03:42:22;21.73;;;12.15;;
44893;SDS011;30625;52.206;21.030;2023-04-09T03:44:48;24.63;;;13.15;;
44893;SDS011;30625;52.206;21.030;2023-04-09T03:47:13;23.20;;;12.25;;
44893;SDS011;30625;52.206;21.030;2023-04-09T03:49:39;21.77;;;12.32;;
44893;SDS011;30625;52.206;21.030;2023-04-09T03:52:05;26.08;;;14.45;;
44893;SDS011;30625;52.206;21.030;2023-04-09T03:54:31;25.92;;;13.85;;
44893;SDS011;30625;52.206;21.030;2023-04-09T03:56:56;27.63;;;14.65;;
44893;SDS011;30625;52.206;21.030;2023-04-09T03:59:22;24.58;;;13.73;;
44893;SDS011;30625;52.206;21.030;2023-04-09T04:01:48;23.45;;;13.07;;
44893;SDS011;30625;52.206;21.030;2023-04-09T04:04:14;24.58;;;13.80;;
44893;SDS011;30625;52.206;21.030;2023-04-09T04:06:40;24.08;;;13.90;;
44893;SDS011;30625;52.206;21.030;2023-04-09T04:09:05;27.48;;;15.00;;
44893;SDS011;30625;52.206;21.030;2023-04-09T04:11:31;28.40;;;14.27;;
44893;SDS011;30625;52.206;21.030;2023-04-09T04:13:56;25.85;;;12.75;;
44893;SDS011;30625;52.206;21.030;2023-04-09T04:16:22;24.85;;;13.70;;
44893;SDS011;30625;52.206;21.030;2023-04-09T04:18:48;26.17;;;15.00;;
44893;SDS011;30625;52.206;21.030;2023-04-09T04:21:14;25.08;;;13.95;;
44893;SDS011;30625;52.206;21.030;2023-04-09T04:23:40;25.02;;;14.25;;
44893;SDS011;30625;52.206;21.030;2023-04-09T04:26:09;25.48;;;13.52;;
44893;SDS011;30625;52.206;21.030;2023-04-09T04:28:39;24.10;;;14.32;;
44893;SDS011;30625;52.206;21.030;2023-04-09T04:31:11;25.38;;;13.85;;
44893;SDS011;30625;52.206;21.030;2023-04-09T04:33:38;22.10;;;12.30;;
44893;SDS011;30625;52.206;21.030;2023-04-09T04:38:34;23.90;;;12.95;;
44893;SDS011;30625;52.206;21.030;2023-04-09T04:41:00;21.98;;;13.25;;
44893;SDS011;30625;52.206;21.030;2023-04-09T04:45:52;25.15;;;13.48;;
44893;SDS011;30625;52.206;21.030;2023-04-09T04:48:18;23.60;;;13.43;;
44893;SDS011;30625;52.206;21.030;2023-04-09T04:50:44;26.88;;;13.85;;
44893;SDS011;30625;52.206;21.030;2023-04-09T04:53:09;27.00;;;12.73;;
44893;SDS011;30625;52.206;21.030;2023-04-09T04:55:35;23.63;;;13.68;;
44893;SDS011;30625;52.206;21.030;2023-04-09T04:58:03;23.90;;;14.18;;
44893;SDS011;30625;52.206;21.030;2023-04-09T05:00:29;25.98;;;14.30;;
44893;SDS011;30625;52.206;21.030;2023-04-09T05:02:55;27.52;;;14.90;;
44893;SDS011;30625;52.206;21.030;2023-04-09T05:05:21;28.13;;;15.50;;
44893;SDS011;30625;52.206;21.030;2023-04-09T05:07:47;29.33;;;16.58;;
44893;SDS011;30625;52.206;21.030;2023-04-09T05:10:12;28.08;;;15.23;;
44893;SDS011;30625;52.206;21.030;2023-04-09T05:12:38;30.58;;;16.73;;
44893;SDS011;30625;52.206;21.030;2023-04-09T05:15:04;33.63;;;18.13;;
44893;SDS011;30625;52.206;21.030;2023-04-09T05:17:30;30.45;;;16.48;;
44893;SDS011;30625;52.206;21.030;2023-04-09T05:19:56;32.97;;;17.63;;
44893;SDS011;30625;52.206;21.030;2023-04-09T05:22:22;29.55;;;17.38;;
44893;SDS011;30625;52.206;21.030;2023-04-09T05:24:47;31.83;;;18.05;;
44893;SDS011;30625;52.206;21.030;2023-04-09T05:27:13;27.27;;;16.23;;
44893;SDS011;30625;52.206;21.030;2023-04-09T05:29:39;28.80;;;15.93;;
44893;SDS011;30625;52.206;21.030;2023-04-09T05:32:05;27.10;;;17.15;;
44893;SDS011;30625;52.206;21.030;2023-04-09T05:34:32;27.73;;;16.00;;
44893;SDS011;30625;52.206;21.030;2023-04-09T05:36:58;28.35;;;16.10;;
44893;SDS011;30625;52.206;21.030;2023-04-09T05:39:24;27.08;;;15.45;;
44893;SDS011;30625;52.206;21.030;2023-04-09T05:41:49;30.02;;;17.40;;
44893;SDS011;30625;52.206;21.030;2023-04-09T05:44:16;29.48;;;16.95;;
44893;SDS011;30625;52.206;21.030;2023-04-09T05:46:42;26.27;;;15.43;;
44893;SDS011;30625;52.206;21.030;2023-04-09T05:49:07;30.75;;;18.67;;
44893;SDS011;30625;52.206;21.030;2023-04-09T05:51:33;31.77;;;18.10;;
44893;SDS011;30625;52.206;21.030;2023-04-09T05:53:59;31.40;;;17.73;;
44893;SDS011;30625;52.206;21.030;2023-04-09T05:58:52;26.42;;;16.02;;
44893;SDS011;30625;52.206;21.030;2023-04-09T06:01:18;28.05;;;16.67;;
44893;SDS011;30625;52.206;21.030;2023-04-09T06:03:43;27.23;;;16.00;;
44893;SDS011;30625;52.206;21.030;2023-04-09T06:06:09;25.73;;;15.73;;
44893;SDS011;30625;52.206;21.030;2023-04-09T06:08:35;25.10;;;15.32;;
44893;SDS011;30625;52.206;21.030;2023-04-09T06:11:01;26.58;;;16.10;;
44893;SDS011;30625;52.206;21.030;2023-04-09T06:13:27;27.13;;;14.82;;
44893;SDS011;30625;52.206;21.030;2023-04-09T06:15:53;22.33;;;13.70;;
44893;SDS011;30625;52.206;21.030;2023-04-09T06:18:19;25.60;;;15.55;;
44893;SDS011;30625;52.206;21.030;2023-04-09T06:20:44;25.88;;;14.57;;
44893;SDS011;30625;52.206;21.030;2023-04-09T06:23:10;23.65;;;14.27;;
44893;SDS011;30625;52.206;21.030;2023-04-09T06:25:36;23.23;;;14.75;;
44893;SDS011;30625;52.206;21.030;2023-04-09T06:28:01;25.45;;;14.95;;
44893;SDS011;30625;52.206;21.030;2023-04-09T06:30:27;23.13;;;14.60;;
44893;SDS011;30625;52.206;21.030;2023-04-09T06:32:54;21.48;;;14.45;;
44893;SDS011;30625;52.206;21.030;2023-04-09T06:35:20;23.60;;;14.27;;
44893;SDS011;30625;52.206;21.030;2023-04-09T06:37:46;25.17;;;14.50;;
44893;SDS011;30625;52.206;21.030;2023-04-09T06:40:12;19.02;;;12.77;;
44893;SDS011;30625;52.206;21.030;2023-04-09T06:45:03;20.00;;;12.55;;
44893;SDS011;30625;52.206;21.030;2023-04-09T06:47:33;22.70;;;14.00;;
44893;SDS011;30625;52.206;21.030;2023-04-09T06:49:59;20.88;;;12.68;;
44893;SDS011;30625;52.206;21.030;2023-04-09T06:52:25;17.70;;;10.43;;
44893;SDS011;30625;52.206;21.030;2023-04-09T06:54:51;20.83;;;12.73;;
44893;SDS011;30625;52.206;21.030;2023-04-09T06:57:17;22.85;;;13.05;;
44893;SDS011;30625;52.206;21.030;2023-04-09T06:59:42;23.17;;;12.73;;
44893;SDS011;30625;52.206;21.030;2023-04-09T07:02:08;20.58;;;12.95;;
44893;SDS011;30625;52.206;21.030;2023-04-09T07:04:34;20.75;;;12.77;;
44893;SDS011;30625;52.206;21.030;2023-04-09T07:06:59;20.98;;;12.45;;
44893;SDS011;30625;52.206;21.030;2023-04-09T07:09:25;19.48;;;11.63;;
44893;SDS011;30625;52.206;21.030;2023-04-09T07:11:51;20.65;;;13.27;;
44893;SDS011;30625;52.206;21.030;2023-04-09T07:14:16;20.75;;;12.63;;
44893;SDS011;30625;52.206;21.030;2023-04-09T07:16:42;22.00;;;12.68;;
44893;SDS011;30625;52.206;21.030;2023-04-09T07:19:10;19.90;;;13.10;;
44893;SDS011;30625;52.206;21.030;2023-04-09T07:21:36;20.75;;;13.07;;
44893;SDS011;30625;52.206;21.030;2023-04-09T07:24:02;20.95;;;13.27;;
44893;SDS011;30625;52.206;21.030;2023-04-09T07:26:28;18.92;;;12.60;;
44893;SDS011;30625;52.206;21.030;2023-04-09T07:28:54;20.67;;;13.13;;
44893;SDS011;30625;52.206;21.030;2023-04-09T07:31:20;19.65;;;12.10;;
44893;SDS011;30625;52.206;21.030;2023-04-09T07:36:12;19.05;;;12.02;;
44893;SDS011;30625;52.206;21.030;2023-04-09T07:38:38;19.42;;;12.18;;
44893;SDS011;30625;52.206;21.030;2023-04-09T07:41:03;22.35;;;12.68;;
44893;SDS011;30625;52.206;21.030;2023-04-09T07:43:30;21.33;;;12.30;;
44893;SDS011;30625;52.206;21.030;2023-04-09T07:45:56;22.70;;;12.75;;
44893;SDS011;30625;52.206;21.030;2023-04-09T07:48:22;17.75;;;11.20;;
44893;SDS011;30625;52.206;21.030;2023-04-09T07:50:47;16.23;;;10.82;;
44893;SDS011;30625;52.206;21.030;2023-04-09T07:53:13;18.45;;;10.48;;
44893;SDS011;30625;52.206;21.030;2023-04-09T07:55:39;17.52;;;11.20;;
44893;SDS011;30625;52.206;21.030;2023-04-09T07:58:05;19.52;;;11.10;;
44893;SDS011;30625;52.206;21.030;2023-04-09T08:00:31;16.25;;;10.02;;
44893;SDS011;30625;52.206;21.030;2023-04-09T08:02:56;17.63;;;10.32;;
44893;SDS011;30625;52.206;21.030;2023-04-09T08:05:23;17.13;;;10.25;;
44893;SDS011;30625;52.206;21.030;2023-04-09T08:07:51;18.30;;;10.00;;
44893;SDS011;30625;52.206;21.030;2023-04-09T08:10:17;15.00;;;9.90;;
44893;SDS011;30625;52.206;21.030;2023-04-09T08:12:43;15.20;;;9.88;;
44893;SDS011;30625;52.206;21.030;2023-04-09T08:15:08;17.42;;;10.27;;
44893;SDS011;30625;52.206;21.030;2023-04-09T08:17:34;14.98;;;9.32;;
44893;SDS011;30625;52.206;21.030;2023-04-09T08:20:03;15.68;;;9.15;;
44893;SDS011;30625;52.206;21.030;2023-04-09T08:22:30;14.70;;;9.52;;
44893;SDS011;30625;52.206;21.030;2023-04-09T08:24:56;16.13;;;9.73;;
44893;SDS011;30625;52.206;21.030;2023-04-09T08:27:22;15.40;;;9.07;;
44893;SDS011;30625;52.206;21.030;2023-04-09T08:29:49;15.40;;;9.35;;
44893;SDS011;30625;52.206;21.030;2023-04-09T08:32:14;15.07;;;9.65;;
44893;SDS011;30625;52.206;21.030;2023-04-09T08:34:40;19.05;;;8.75;;
44893;SDS011;30625;52.206;21.030;2023-04-09T08:37:06;14.57;;;9.65;;
44893;SDS011;30625;52.206;21.030;2023-04-09T08:39:32;14.50;;;9.18;;
44893;SDS011;30625;52.206;21.030;2023-04-09T08:41:58;15.00;;;9.13;;
44893;SDS011;30625;52.206;21.030;2023-04-09T08:44:27;14.30;;;9.32;;
44893;SDS011;30625;52.206;21.030;2023-04-09T08:46:54;17.50;;;8.93;;
44893;SDS011;30625;52.206;21.030;2023-04-09T08:49:20;13.30;;;7.63;;
44893;SDS011;30625;52.206;21.030;2023-04-09T08:51:49;16.80;;;7.97;;
44893;SDS011;30625;52.206;21.030;2023-04-09T08:54:15;16.02;;;8.55;;
44893;SDS011;30625;52.206;21.030;2023-04-09T08:56:46;13.38;;;8.45;;
44893;SDS011;30625;52.206;21.030;2023-04-09T08:59:15;12.90;;;8.13;;
44893;SDS011;30625;52.206;21.030;2023-04-09T09:01:45;14.05;;;8.85;;
44893;SDS011;30625;52.206;21.030;2023-04-09T09:04:13;13.57;;;8.57;;
44893;SDS011;30625;52.206;21.030;2023-04-09T09:06:39;14.82;;;8.45;;
44893;SDS011;30625;52.206;21.030;2023-04-09T09:09:12;13.30;;;8.48;;
44893;SDS011;30625;52.206;21.030;2023-04-09T09:11:47;14.65;;;8.25;;
44893;SDS011;30625;52.206;21.030;2023-04-09T09:14:15;12.13;;;8.07;;
44893;SDS011;30625;52.206;21.030;2023-04-09T09:21:58;13.55;;;8.63;;
44893;SDS011;30625;52.206;21.030;2023-04-09T09:24:29;13.38;;;8.85;;
44893;SDS011;30625;52.206;21.030;2023-04-09T09:26:59;12.02;;;7.72;;
44893;SDS011;30625;52.206;21.030;2023-04-09T09:29:26;15.38;;;8.20;;
44893;SDS011;30625;52.206;21.030;2023-04-09T09:31:53;13.88;;;8.63;;
44893;SDS011;30625;52.206;21.030;2023-04-09T09:34:20;12.55;;;8.55;;
44893;SDS011;30625;52.206;21.030;2023-04-09T09:36:47;14.20;;;8.82;;
44893;SDS011;30625;52.206;21.030;2023-04-09T09:39:14;14.98;;;9.25;;
44893;SDS011;30625;52.206;21.030;2023-04-09T09:41:42;13.73;;;7.97;;
44893;SDS011;30625;52.206;21.030;2023-04-09T09:44:09;12.38;;;8.32;;
44893;SDS011;30625;52.206;21.030;2023-04-09T09:46:36;13.77;;;8.57;;
44893;SDS011;30625;52.206;21.030;2023-04-09T09:49:03;13.20;;;8.52;;
44893;SDS011;30625;52.206;21.030;2023-04-09T09:51:30;16.92;;;8.02;;
44893;SDS011;30625;52.206;21.030;2023-04-09T09:53:57;12.55;;;8.50;;
44893;SDS011;30625;52.206;21.030;2023-04-09T09:56:29;12.00;;;7.30;;
44893;SDS011;30625;52.206;21.030;2023-04-09T09:59:20;11.55;;;7.43;;
44893;SDS011;30625;52.206;21.030;2023-04-09T10:01:48;13.05;;;8.35;;
44893;SDS011;30625;52.206;21.030;2023-04-09T10:04:21;10.88;;;7.80;;
44893;SDS011;30625;52.206;21.030;2023-04-09T10:06:48;12.38;;;8.65;;
44893;SDS011;30625;52.206;21.030;2023-04-09T10:09:15;11.77;;;8.07;;
44893;SDS011;30625;52.206;21.030;2023-04-09T10:11:41;14.05;;;8.48;;
44893;SDS011;30625;52.206;21.030;2023-04-09T10:14:09;12.52;;;7.95;;
44893;SDS011;30625;52.206;21.030;2023-04-09T10:16:36;9.63;;;7.15;;
44893;SDS011;30625;52.206;21.030;2023-04-09T10:19:02;11.30;;;7.72;;
44893;SDS011;30625;52.206;21.030;2023-04-09T10:24:07;11.07;;;7.22;;
44893;SDS011;30625;52.206;21.030;2023-04-09T10:26:33;14.15;;;7.10;;
44893;SDS011;30625;52.206;21.030;2023-04-09T10:29:04;12.30;;;7.82;;
44893;SDS011;30625;52.206;21.030;2023-04-09T10:31:44;13.05;;;7.32;;
44893;SDS011;30625;52.206;21.030;2023-04-09T10:34:09;12.38;;;7.68;;
44893;SDS011;30625;52.206;21.030;2023-04-09T10:36:38;13.57;;;8.73;;
44893;SDS011;30625;52.206;21.030;2023-04-09T10:39:13;12.60;;;8.45;;
44893;SDS011;30625;52.206;21.030;2023-04-09T10:41:39;13.07;;;8.55;;
44893;SDS011;30625;52.206;21.030;2023-04-09T10:44:26;13.02;;;8.30;;
44893;SDS011;30625;52.206;21.030;2023-04-09T10:49:22;13.25;;;7.70;;
44893;SDS011;30625;52.206;21.030;2023-04-09T10:51:52;14.43;;;8.70;;
44893;SDS011;30625;52.206;21.030;2023-04-09T10:57:12;14.02;;;7.68;;
44893;SDS011;30625;52.206;21.030;2023-04-09T10:59:40;13.20;;;8.10;;
44893;SDS011;30625;52.206;21.030;2023-04-09T11:02:09;10.35;;;7.88;;
44893;SDS011;30625;52.206;21.030;2023-04-09T11:07:57;13.77;;;6.95;;
44893;SDS011;30625;52.206;21.030;2023-04-09T11:10:27;12.38;;;8.02;;
44893;SDS011;30625;52.206;21.030;2023-04-09T11:12:53;15.88;;;7.78;;
44893;SDS011;30625;52.206;21.030;2023-04-09T11:15:19;11.70;;;7.70;;
44893;SDS011;30625;52.206;21.030;2023-04-09T11:17:45;13.27;;;7.68;;
44893;SDS011;30625;52.206;21.030;2023-04-09T11:20:12;14.07;;;8.75;;
44893;SDS011;30625;52.206;21.030;2023-04-09T11:22:39;13.38;;;7.90;;
44893;SDS011;30625;52.206;21.030;2023-04-09T11:25:05;10.77;;;7.18;;
44893;SDS011;30625;52.206;21.030;2023-04-09T11:27:35;16.23;;;7.97;;
44893;SDS011;30625;52.206;21.030;2023-04-09T11:30:02;11.88;;;7.57;;
44893;SDS011;30625;52.206;21.030;2023-04-09T11:32:29;11.68;;;7.90;;
44893;SDS011;30625;52.206;21.030;2023-04-09T11:34:55;14.13;;;8.43;;
44893;SDS011;30625;52.206;21.030;2023-04-09T11:37:22;12.02;;;7.45;;
44893;SDS011;30625;52.206;21.030;2023-04-09T11:42:18;12.75;;;7.50;;
44893;SDS011;30625;52.206;21.030;2023-04-09T11:44:44;13.98;;;7.47;;
44893;SDS011;30625;52.206;21.030;2023-04-09T11:47:11;11.88;;;7.32;;
44893;SDS011;30625;52.206;21.030;2023-04-09T11:49:38;11.93;;;7.25;;
44893;SDS011;30625;52.206;21.030;2023-04-09T11:52:05;11.55;;;6.75;;
44893;SDS011;30625;52.206;21.030;2023-04-09T11:54:34;13.07;;;6.88;;
44893;SDS011;30625;52.206;21.030;2023-04-09T11:56:59;11.45;;;6.78;;
44893;SDS011;30625;52.206;21.030;2023-04-09T11:59:27;12.52;;;6.80;;
44893;SDS011;30625;52.206;21.030;2023-04-09T12:01:56;9.73;;;6.47;;
44893;SDS011;30625;52.206;21.030;2023-04-09T12:04:22;10.63;;;6.22;;
44893;SDS011;30625;52.206;21.030;2023-04-09T12:06:55;10.10;;;6.32;;
44893;SDS011;30625;52.206;21.030;2023-04-09T12:09:22;10.68;;;6.30;;
44893;SDS011;30625;52.206;21.030;2023-04-09T12:11:48;10.52;;;6.22;;
44893;SDS011;30625;52.206;21.030;2023-04-09T12:14:15;10.88;;;6.35;;
44893;SDS011;30625;52.206;21.030;2023-04-09T12:16:42;10.07;;;6.55;;
44893;SDS011;30625;52.206;21.030;2023-04-09T12:19:09;11.10;;;6.53;;
44893;SDS011;30625;52.206;21.030;2023-04-09T12:21:49;10.38;;;6.47;;
44893;SDS011;30625;52.206;21.030;2023-04-09T12:24:17;10.05;;;6.50;;
44893;SDS011;30625;52.206;21.030;2023-04-09T12:26:44;11.52;;;7.07;;
44893;SDS011;30625;52.206;21.030;2023-04-09T12:29:11;9.77;;;5.82;;
44893;SDS011;30625;52.206;21.030;2023-04-09T12:31:38;10.10;;;5.78;;
44893;SDS011;30625;52.206;21.030;2023-04-09T12:34:04;10.85;;;6.55;;
44893;SDS011;30625;52.206;21.030;2023-04-09T12:36:29;9.55;;;5.45;;
44893;SDS011;30625;52.206;21.030;2023-04-09T12:38:55;8.82;;;5.57;;
44893;SDS011;30625;52.206;21.030;2023-04-09T12:41:21;8.88;;;5.53;;
44893;SDS011;30625;52.206;21.030;2023-04-09T12:43:46;12.10;;;6.43;;
44893;SDS011;30625;52.206;21.030;2023-04-09T12:46:13;13.10;;;6.18;;
44893;SDS011;30625;52.206;21.030;2023-04-09T12:48:38;10.50;;;6.15;;
44893;SDS011;30625;52.206;21.030;2023-04-09T12:51:04;13.18;;;6.85;;
44893;SDS011;30625;52.206;21.030;2023-04-09T12:55:56;11.73;;;6.22;;
44893;SDS011;30625;52.206;21.030;2023-04-09T12:58:22;11.35;;;6.20;;
44893;SDS011;30625;52.206;21.030;2023-04-09T13:00:48;10.27;;;6.55;;
44893;SDS011;30625;52.206;21.030;2023-04-09T13:03:15;12.10;;;7.40;;
44893;SDS011;30625;52.206;21.030;2023-04-09T13:05:41;13.13;;;7.38;;
44893;SDS011;30625;52.206;21.030;2023-04-09T13:08:07;12.20;;;7.70;;
44893;SDS011;30625;52.206;21.030;2023-04-09T13:10:33;16.50;;;8.88;;
44893;SDS011;30625;52.206;21.030;2023-04-09T13:12:59;21.83;;;10.77;;
44893;SDS011;30625;52.206;21.030;2023-04-09T13:15:25;19.27;;;9.70;;
44893;SDS011;30625;52.206;21.030;2023-04-09T13:17:51;15.93;;;10.25;;
44893;SDS011;30625;52.206;21.030;2023-04-09T13:20:17;18.02;;;11.90;;
44893;SDS011;30625;52.206;21.030;2023-04-09T13:22:43;14.02;;;9.07;;
44893;SDS011;30625;52.206;21.030;2023-04-09T13:25:12;17.08;;;10.35;;
44893;SDS011;30625;52.206;21.030;2023-04-09T13:27:39;15.25;;;9.98;;
44893;SDS011;30625;52.206;21.030;2023-04-09T13:30:05;15.70;;;9.70;;
44893;SDS011;30625;52.206;21.030;2023-04-09T13:32:31;15.50;;;9.18;;
44893;SDS011;30625;52.206;21.030;2023-04-09T13:34:57;14.30;;;9.82;;
44893;SDS011;30625;52.206;21.030;2023-04-09T13:37:22;12.75;;;8.52;;
44893;SDS011;30625;52.206;21.030;2023-04-09T13:39:49;16.02;;;10.25;;
44893;SDS011;30625;52.206;21.030;2023-04-09T13:42:15;13.13;;;8.80;;
44893;SDS011;30625;52.206;21.030;2023-04-09T13:44:41;15.23;;;8.38;;
44893;SDS011;30625;52.206;21.030;2023-04-09T13:47:12;13.52;;;9.20;;
44893;SDS011;30625;52.206;21.030;2023-04-09T13:49:38;13.48;;;9.40;;
44893;SDS011;30625;52.206;21.030;2023-04-09T13:52:05;13.40;;;8.98;;
44893;SDS011;30625;52.206;21.030;2023-04-09T13:54:31;14.35;;;7.93;;
44893;SDS011;30625;52.206;21.030;2023-04-09T13:56:57;12.48;;;8.45;;
44893;SDS011;30625;52.206;21.030;2023-04-09T13:59:23;15.48;;;10.15;;
44893;SDS011;30625;52.206;21.030;2023-04-09T14:01:49;14.55;;;10.05;;
44893;SDS011;30625;52.206;21.030;2023-04-09T14:04:15;15.27;;;9.32;;
44893;SDS011;30625;52.206;21.030;2023-04-09T14:06:40;15.93;;;10.38;;
44893;SDS011;30625;52.206;21.030;2023-04-09T14:09:07;15.18;;;8.77;;
44893;SDS011;30625;52.206;21.030;2023-04-09T14:11:33;13.82;;;8.88;;
44893;SDS011;30625;52.206;21.030;2023-04-09T14:13:59;15.77;;;8.82;;
44893;SDS011;30625;52.206;21.030;2023-04-09T14:16:25;12.57;;;7.90;;
44893;SDS011;30625;52.206;21.030;2023-04-09T14:18:52;12.75;;;7.53;;
44893;SDS011;30625;52.206;21.030;2023-04-09T14:21:17;14.43;;;7.55;;
44893;SDS011;30625;52.206;21.030;2023-04-09T14:23:45;13.02;;;7.53;;
44893;SDS011;30625;52.206;21.030;2023-04-09T14:26:11;12.50;;;7.05;;
44893;SDS011;30625;52.206;21.030;2023-04-09T14:28:37;11.07;;;6.43;;
44893;SDS011;30625;52.206;21.030;2023-04-09T14:31:03;12.60;;;6.97;;
44893;SDS011;30625;52.206;21.030;2023-04-09T14:33:29;12.77;;;6.93;;
44893;SDS011;30625;52.206;21.030;2023-04-09T14:35:54;11.85;;;6.65;;
44893;SDS011;30625;52.206;21.030;2023-04-09T14:38:20;11.43;;;6.90;;
44893;SDS011;30625;52.206;21.030;2023-04-09T14:40:48;8.80;;;5.63;;
44893;SDS011;30625;52.206;21.030;2023-04-09T14:43:14;10.48;;;6.15;;
44893;SDS011;30625;52.206;21.030;2023-04-09T14:45:40;10.07;;;6.03;;
44893;SDS011;30625;52.206;21.030;2023-04-09T14:48:05;10.02;;;4.90;;
44893;SDS011;30625;52.206;21.030;2023-04-09T14:50:31;9.93;;;5.93;;
44893;SDS011;30625;52.206;21.030;2023-04-09T14:53:00;9.30;;;5.78;;
44893;SDS011;30625;52.206;21.030;2023-04-09T14:55:27;8.93;;;5.50;;
44893;SDS011;30625;52.206;21.030;2023-04-09T14:57:57;9.88;;;5.18;;
44893;SDS011;30625;52.206;21.030;2023-04-09T15:00:23;9.20;;;4.80;;
44893;SDS011;30625;52.206;21.030;2023-04-09T15:02:49;9.48;;;5.03;;
44893;SDS011;30625;52.206;21.030;2023-04-09T15:05:15;8.73;;;5.03;;
44893;SDS011;30625;52.206;21.030;2023-04-09T15:07:41;9.00;;;4.90;;